sensor_id;sensor_type;location;lat;lon;timestamp;temperature;humidity
12520;DHT22;6325;49.540;8.364;2023-06-22T16:40:46;29.80;99.90
12520;DHT22;6325;49.540;8.364;2023-06-22T16:43:14;29.50;99.90
12520;DHT22;6325;49.540;8.364;2023-06-22T16:45:41;28.90;99.90
12520;DHT22;6325;49.540;8.364;2023-06-22T16:48:08;28.60;99.90
12520;DHT22;6325;49.540;8.364;2023-06-22T16:50:35;28.70;99.90
12520;DHT22;6325;49.540;8.364;2023-06-22T16:53:01;28.30;99.90
12520;DHT22;6325;49.540;8.364;2023-06-22T16:55:29;28.10;99.90
12520;DHT22;6325;49.540;8.364;2023-06-22T16:57:58;27.80;99.90
12520;DHT22;6325;49.540;8.364;2023-06-22T17:00:28;27.80;99.90
12520;DHT22;6325;49.540;8.364;2023-06-22T17:02:59;28.00;99.90
12520;DHT22;6325;49.540;8.364;2023-06-22T17:05:28;27.90;99.90
12520;DHT22;6325;49.540;8.364;2023-06-22T17:07:58;28.10;99.90
12520;DHT22;6325;49.540;8.364;2023-06-22T17:10:27;27.70;99.90
12520;DHT22;6325;49.540;8.364;2023-06-22T17:12:53;28.80;99.90
12520;DHT22;6325;49.540;8.364;2023-06-22T17:15:22;29.60;99.90
12520;DHT22;6325;49.540;8.364;2023-06-22T17:17:50;30.30;99.90
12520;DHT22;6325;49.540;8.364;2023-06-22T17:20:18;30.00;99.90
12520;DHT22;6325;49.540;8.364;2023-06-22T17:22:44;30.00;99.90
12520;DHT22;6325;49.540;8.364;2023-06-22T17:25:12;29.60;99.90
12520;DHT22;6325;49.540;8.364;2023-06-22T17:27:40;29.80;99.90
12520;DHT22;6325;49.540;8.364;2023-06-22T17:30:08;29.90;99.90
12520;DHT22;6325;49.540;8.364;2023-06-22T17:32:35;29.70;99.90
12520;DHT22;6325;49.540;8.364;2023-06-22T17:35:04;29.70;99.90
12520;DHT22;6325;49.540;8.364;2023-06-22T17:37:46;29.70;99.90
12520;DHT22;6325;49.540;8.364;2023-06-22T17:40:14;29.60;99.90
12520;DHT22;6325;49.540;8.364;2023-06-22T17:42:41;29.50;99.90
12520;DHT22;6325;49.540;8.364;2023-06-22T17:45:15;29.30;99.90
12520;DHT22;6325;49.540;8.364;2023-06-22T17:47:42;29.30;99.90
12520;DHT22;6325;49.540;8.364;2023-06-22T17:50:11;28.90;99.90
12520;DHT22;6325;49.540;8.364;2023-06-22T17:52:37;29.20;99.90
12520;DHT22;6325;49.540;8.364;2023-06-22T17:55:05;29.00;99.90
12520;DHT22;6325;49.540;8.364;2023-06-22T17:57:36;28.90;99.90
12520;DHT22;6325;49.540;8.364;2023-06-22T18:00:04;28.80;99.90
12520;DHT22;6325;49.540;8.364;2023-06-22T18:02:36;29.20;99.90
12520;DHT22;6325;49.540;8.364;2023-06-22T18:05:04;28.40;99.90
12520;DHT22;6325;49.540;8.364;2023-06-22T18:07:34;28.10;99.90
12520;DHT22;6325;49.540;8.364;2023-06-22T18:10:02;28.60;99.90
12520;DHT22;6325;49.540;8.364;2023-06-22T18:12:29;28.50;99.90
12520;DHT22;6325;49.540;8.364;2023-06-22T18:14:57;28.50;99.90
12520;DHT22;6325;49.540;8.364;2023-06-22T18:17:25;28.90;99.90
12520;DHT22;6325;49.540;8.364;2023-06-22T18:19:52;28.80;99.90
12520;DHT22;6325;49.540;8.364;2023-06-22T18:22:21;28.30;99.90
12520;DHT22;6325;49.540;8.364;2023-06-22T18:24:49;27.80;99.90
12520;DHT22;6325;49.540;8.364;2023-06-22T18:27:16;28.70;99.90
12520;DHT22;6325;49.540;8.364;2023-06-22T18:29:43;28.40;99.90
12520;DHT22;6325;49.540;8.364;2023-06-22T18:32:10;28.00;99.90
12520;DHT22;6325;49.540;8.364;2023-06-22T18:34:39;28.20;99.90
12520;DHT22;6325;49.540;8.364;2023-06-22T18:37:08;28.20;99.90
12520;DHT22;6325;49.540;8.364;2023-06-22T18:39:37;28.30;99.90
12520;DHT22;6325;49.540;8.364;2023-06-22T18:42:08;28.00;99.90
12520;DHT22;6325;49.540;8.364;2023-06-22T18:44:35;27.90;99.90
12520;DHT22;6325;49.540;8.364;2023-06-22T18:47:05;28.30;99.90
12520;DHT22;6325;49.540;8.364;2023-06-22T18:49:33;28.00;99.90
12520;DHT22;6325;49.540;8.364;2023-06-22T18:52:04;27.90;99.90
12520;DHT22;6325;49.540;8.364;2023-06-22T18:54:34;28.00;99.90
12520;DHT22;6325;49.540;8.364;2023-06-22T18:57:03;28.00;99.90
12520;DHT22;6325;49.540;8.364;2023-06-22T19:00:00;28.00;99.90
12520;DHT22;6325;49.540;8.364;2023-06-22T19:09:12;28.20;99.90
12520;DHT22;6325;49.540;8.364;2023-06-22T19:11:39;28.10;99.90
12520;DHT22;6325;49.540;8.364;2023-06-22T19:14:06;27.30;99.90
12520;DHT22;6325;49.540;8.364;2023-06-22T19:16:34;27.40;99.90
12520;DHT22;6325;49.540;8.364;2023-06-22T19:19:12;27.50;99.90
12520;DHT22;6325;49.540;8.364;2023-06-22T19:21:38;27.70;99.90
12520;DHT22;6325;49.540;8.364;2023-06-22T19:24:06;27.40;99.90
12520;DHT22;6325;49.540;8.364;2023-06-22T19:26:34;27.40;99.90
12520;DHT22;6325;49.540;8.364;2023-06-22T19:29:14;27.50;99.90
12520;DHT22;6325;49.540;8.364;2023-06-22T19:31:44;27.20;99.90
12520;DHT22;6325;49.540;8.364;2023-06-22T19:34:11;27.00;99.90
12520;DHT22;6325;49.540;8.364;2023-06-22T19:36:39;27.50;99.90
12520;DHT22;6325;49.540;8.364;2023-06-22T19:39:05;27.00;99.90
12520;DHT22;6325;49.540;8.364;2023-06-22T19:41:32;26.90;99.90
12520;DHT22;6325;49.540;8.364;2023-06-22T19:43:59;26.90;99.90
12520;DHT22;6325;49.540;8.364;2023-06-22T19:46:27;27.50;99.90
12520;DHT22;6325;49.540;8.364;2023-06-22T19:48:56;26.40;99.90
12520;DHT22;6325;49.540;8.364;2023-06-22T19:51:23;26.70;99.90
12520;DHT22;6325;49.540;8.364;2023-06-22T19:53:50;26.60;99.90
12520;DHT22;6325;49.540;8.364;2023-06-22T19:56:19;26.90;99.90
12520;DHT22;6325;49.540;8.364;2023-06-22T19:58:46;26.40;99.90
12520;DHT22;6325;49.540;8.364;2023-06-22T20:01:13;26.50;99.90
12520;DHT22;6325;49.540;8.364;2023-06-22T20:03:39;26.20;99.90
12520;DHT22;6325;49.540;8.364;2023-06-22T20:06:12;26.00;99.90
12520;DHT22;6325;49.540;8.364;2023-06-22T20:08:43;25.60;99.90
12520;DHT22;6325;49.540;8.364;2023-06-22T20:11:10;25.60;99.90
12520;DHT22;6325;49.540;8.364;2023-06-22T20:13:46;25.40;99.90
12520;DHT22;6325;49.540;8.364;2023-06-22T20:16:13;25.20;99.90
12520;DHT22;6325;49.540;8.364;2023-06-22T20:18:41;24.60;99.90
12520;DHT22;6325;49.540;8.364;2023-06-22T20:21:11;25.10;99.90
12520;DHT22;6325;49.540;8.364;2023-06-22T20:23:39;25.30;99.90
12520;DHT22;6325;49.540;8.364;2023-06-22T20:26:07;24.70;99.90
12520;DHT22;6325;49.540;8.364;2023-06-22T20:28:35;24.30;99.90
12520;DHT22;6325;49.540;8.364;2023-06-22T20:31:03;24.90;99.90
12520;DHT22;6325;49.540;8.364;2023-06-22T20:33:30;24.70;99.90
12520;DHT22;6325;49.540;8.364;2023-06-22T20:35:57;24.40;99.90
12520;DHT22;6325;49.540;8.364;2023-06-22T20:38:26;24.30;99.90
12520;DHT22;6325;49.540;8.364;2023-06-22T20:40:54;24.80;99.90
12520;DHT22;6325;49.540;8.364;2023-06-22T20:43:21;24.20;99.90
12520;DHT22;6325;49.540;8.364;2023-06-22T20:45:49;24.10;99.90
12520;DHT22;6325;49.540;8.364;2023-06-22T20:48:15;24.00;99.90
12520;DHT22;6325;49.540;8.364;2023-06-22T20:50:42;24.50;99.90
12520;DHT22;6325;49.540;8.364;2023-06-22T20:53:09;23.90;99.90
12520;DHT22;6325;49.540;8.364;2023-06-22T20:55:37;24.00;99.90
12520;DHT22;6325;49.540;8.364;2023-06-22T20:58:04;23.90;99.90
12520;DHT22;6325;49.540;8.364;2023-06-22T21:00:32;23.50;99.90
12520;DHT22;6325;49.540;8.364;2023-06-22T21:03:00;23.80;99.90
12520;DHT22;6325;49.540;8.364;2023-06-22T21:05:27;23.80;99.90
12520;DHT22;6325;49.540;8.364;2023-06-22T21:07:54;23.70;99.90
12520;DHT22;6325;49.540;8.364;2023-06-22T21:10:21;23.60;99.90
12520;DHT22;6325;49.540;8.364;2023-06-22T21:12:49;23.70;99.90
12520;DHT22;6325;49.540;8.364;2023-06-22T21:15:16;23.70;99.90
12520;DHT22;6325;49.540;8.364;2023-06-22T21:17:43;23.70;99.90
12520;DHT22;6325;49.540;8.364;2023-06-22T21:20:10;23.80;99.90
12520;DHT22;6325;49.540;8.364;2023-06-22T21:22:37;23.50;99.90
12520;DHT22;6325;49.540;8.364;2023-06-22T21:25:06;23.70;99.90
12520;DHT22;6325;49.540;8.364;2023-06-22T21:27:33;23.60;99.90
12520;DHT22;6325;49.540;8.364;2023-06-22T21:30:02;23.30;99.90
12520;DHT22;6325;49.540;8.364;2023-06-22T21:32:30;23.70;99.90
12520;DHT22;6325;49.540;8.364;2023-06-22T21:34:57;23.60;99.90
12520;DHT22;6325;49.540;8.364;2023-06-22T21:37:24;23.70;99.90
12520;DHT22;6325;49.540;8.364;2023-06-22T21:39:51;23.70;99.90
12520;DHT22;6325;49.540;8.364;2023-06-22T21:42:18;23.60;99.90
12520;DHT22;6325;49.540;8.364;2023-06-22T21:44:47;23.70;99.90
12520;DHT22;6325;49.540;8.364;2023-06-22T21:47:15;23.70;99.90
12520;DHT22;6325;49.540;8.364;2023-06-22T21:49:42;23.60;99.90
12520;DHT22;6325;49.540;8.364;2023-06-22T21:52:09;23.60;99.90
12520;DHT22;6325;49.540;8.364;2023-06-22T21:54:37;23.50;99.90
12520;DHT22;6325;49.540;8.364;2023-06-22T21:57:04;23.50;99.90
12520;DHT22;6325;49.540;8.364;2023-06-22T21:59:30;23.20;99.90
12520;DHT22;6325;49.540;8.364;2023-06-22T22:01:57;24.10;99.90
12520;DHT22;6325;49.540;8.364;2023-06-22T22:04:25;23.70;99.90
12520;DHT22;6325;49.540;8.364;2023-06-22T22:06:52;23.90;99.90
12520;DHT22;6325;49.540;8.364;2023-06-22T22:09:20;23.10;99.90
12520;DHT22;6325;49.540;8.364;2023-06-22T22:11:46;23.30;99.90
12520;DHT22;6325;49.540;8.364;2023-06-22T22:14:13;23.50;99.90
12520;DHT22;6325;49.540;8.364;2023-06-22T22:16:40;23.60;99.90
12520;DHT22;6325;49.540;8.364;2023-06-22T22:19:07;23.60;99.90
12520;DHT22;6325;49.540;8.364;2023-06-22T22:21:36;23.50;99.90
12520;DHT22;6325;49.540;8.364;2023-06-22T22:24:02;23.50;99.90
12520;DHT22;6325;49.540;8.364;2023-06-22T22:26:30;23.50;99.90
12520;DHT22;6325;49.540;8.364;2023-06-22T22:28:57;23.50;99.90
12520;DHT22;6325;49.540;8.364;2023-06-22T22:31:24;23.40;99.90
12520;DHT22;6325;49.540;8.364;2023-06-22T22:33:51;23.50;99.90
12520;DHT22;6325;49.540;8.364;2023-06-22T22:36:18;23.60;99.90
12520;DHT22;6325;49.540;8.364;2023-06-22T22:38:46;23.40;99.90
12520;DHT22;6325;49.540;8.364;2023-06-22T22:41:13;23.40;99.90
12520;DHT22;6325;49.540;8.364;2023-06-22T22:43:39;23.20;99.90
12520;DHT22;6325;49.540;8.364;2023-06-22T22:46:06;23.10;99.90
12520;DHT22;6325;49.540;8.364;2023-06-22T22:48:32;23.80;99.90
12520;DHT22;6325;49.540;8.364;2023-06-22T22:50:59;23.40;99.90
12520;DHT22;6325;49.540;8.364;2023-06-22T22:53:29;23.40;99.90
12520;DHT22;6325;49.540;8.364;2023-06-22T22:55:57;23.30;99.90
12520;DHT22;6325;49.540;8.364;2023-06-22T22:58:24;23.30;99.90
12520;DHT22;6325;49.540;8.364;2023-06-22T23:00:51;23.00;99.90
12520;DHT22;6325;49.540;8.364;2023-06-22T23:03:18;23.20;99.90
12520;DHT22;6325;49.540;8.364;2023-06-22T23:05:44;22.90;99.90
12520;DHT22;6325;49.540;8.364;2023-06-22T23:08:11;22.30;99.90
12520;DHT22;6325;49.540;8.364;2023-06-22T23:10:38;22.80;99.90
12520;DHT22;6325;49.540;8.364;2023-06-22T23:13:07;22.80;99.90
12520;DHT22;6325;49.540;8.364;2023-06-22T23:15:33;22.70;99.90
12520;DHT22;6325;49.540;8.364;2023-06-22T23:18:00;22.70;99.90
12520;DHT22;6325;49.540;8.364;2023-06-22T23:20:28;22.40;99.90
12520;DHT22;6325;49.540;8.364;2023-06-22T23:22:55;22.20;99.90
12520;DHT22;6325;49.540;8.364;2023-06-22T23:25:23;22.00;99.90
12520;DHT22;6325;49.540;8.364;2023-06-22T23:27:50;21.50;99.90
12520;DHT22;6325;49.540;8.364;2023-06-22T23:30:19;22.00;99.90
12520;DHT22;6325;49.540;8.364;2023-06-22T23:32:46;22.10;99.90
12520;DHT22;6325;49.540;8.364;2023-06-22T23:35:13;22.40;99.90
12520;DHT22;6325;49.540;8.364;2023-06-22T23:37:39;21.70;99.90
12520;DHT22;6325;49.540;8.364;2023-06-22T23:40:07;22.00;99.90
12520;DHT22;6325;49.540;8.364;2023-06-22T23:42:42;21.50;99.90
12520;DHT22;6325;49.540;8.364;2023-06-22T23:45:12;21.60;99.90
12520;DHT22;6325;49.540;8.364;2023-06-22T23:47:42;21.70;99.90
12520;DHT22;6325;49.540;8.364;2023-06-22T23:50:09;21.70;99.90
12520;DHT22;6325;49.540;8.364;2023-06-22T23:52:36;21.70;99.90
12520;DHT22;6325;49.540;8.364;2023-06-22T23:55:04;21.50;99.90
12520;DHT22;6325;49.540;8.364;2023-06-22T23:57:30;21.50;99.90
12520;DHT22;6325;49.540;8.364;2023-06-22T23:59:58;21.40;99.90
